Time;durP1;ratioP1;P1;durP2;ratioP2;P2;SDS_P1;SDS_P2;PMS_P1;PMS_P2;Temp;Humidity;BMP_temperature;BMP_pressure;BME280_temperature;BME280_humidity;BME280_pressure;Samples;Min_cycle;Max_cycle;Signal;HPM_P1;HPM_P2
2022/01/24 00:00:27;;;;;;;2.72;2.50;;;17.20;58.40;;;;;;5094117;28;20024;-68
2022/01/24 00:02:52;;;;;;;2.30;2.10;;;17.20;58.40;;;;;;5094131;28;20031;-69
2022/01/24 00:05:18;;;;;;;2.60;2.40;;;17.20;58.40;;;;;;5093790;28;20027;-68
2022/01/24 00:07:44;;;;;;;2.80;2.50;;;17.20;58.50;;;;;;5075962;28;20082;-68
2022/01/24 00:10:15;;;;;;;2.63;2.33;;;17.20;58.50;;;;;;5092300;28;20500;-68
2022/01/24 00:17:48;;;;;;;2.92;2.50;;;17.10;58.40;;;;;;5092878;28;20393;-68
2022/01/24 00:28:24;;;;;;;3.38;2.30;;;17.10;58.50;;;;;;5058128;28;20075;-68
2022/01/24 00:30:50;;;;;;;2.88;2.28;;;17.10;58.60;;;;;;5072095;28;20406;-68
2022/01/24 00:33:18;;;;;;;3.75;2.45;;;17.10;58.60;;;;;;5073198;28;20497;-68
2022/01/24 00:35:43;;;;;;;3.45;2.30;;;17.10;58.60;;;;;;5072074;28;20021;-68
2022/01/24 00:38:09;;;;;;;2.58;2.35;;;17.10;58.60;;;;;;5093003;28;20033;-68
2022/01/24 00:40:39;;;;;;;3.03;2.72;;;17.10;58.60;;;;;;5092425;28;20028;-68
2022/01/24 00:43:11;;;;;;;2.22;2.13;;;17.10;58.60;;;;;;5093090;28;20181;-68
2022/01/24 00:45:53;;;;;;;2.88;2.42;;;17.00;58.60;;;;;;5092065;28;20031;-69
2022/01/24 00:54:02;;;;;;;2.58;2.35;;;17.00;58.70;;;;;;5050458;28;20068;-68
2022/01/24 00:56:28;;;;;;;2.70;2.47;;;17.10;58.80;;;;;;5050711;28;20033;-68
2022/01/24 00:58:54;;;;;;;2.90;2.35;;;17.00;58.70;;;;;;5050720;28;20021;-68
2022/01/24 01:01:19;;;;;;;2.72;2.30;;;17.00;58.70;;;;;;5050642;28;20110;-68
2022/01/24 01:03:45;;;;;;;2.90;2.25;;;17.00;58.70;;;;;;5050590;28;20155;-68
2022/01/24 01:06:12;;;;;;;2.70;2.50;;;17.00;58.80;;;;;;5050368;28;20037;-68
2022/01/24 01:19:36;;;;;;;2.40;2.20;;;17.00;58.90;;;;;;5050294;28;20082;-68
2022/01/24 01:22:02;;;;;;;2.50;2.30;;;17.00;58.90;;;;;;5034403;28;20467;-68
2022/01/24 01:24:30;;;;;;;2.75;2.55;;;17.00;58.90;;;;;;5013810;28;20092;-68
2022/01/24 01:27:08;;;;;;;2.78;2.53;;;17.00;59.00;;;;;;5030716;28;20033;-68
2022/01/24 01:54:33;;;;;;;2.70;2.40;;;16.90;59.00;;;;;;5091676;28;20054;-68
2022/01/24 01:57:00;;;;;;;3.33;2.90;;;16.90;59.00;;;;;;5092334;28;20073;-68
2022/01/24 01:59:25;;;;;;;2.97;2.67;;;16.90;59.00;;;;;;5094829;28;20020;-68
2022/01/24 02:01:51;;;;;;;2.63;2.42;;;16.90;59.10;;;;;;5095387;28;20100;-68
2022/01/24 02:04:17;;;;;;;2.40;2.20;;;16.90;59.00;;;;;;5095109;28;20028;-68
2022/01/24 02:06:43;;;;;;;2.92;2.72;;;16.90;59.00;;;;;;5095143;28;20388;-68
2022/01/24 02:09:10;;;;;;;2.70;2.50;;;16.90;59.10;;;;;;5096435;28;20024;-68
2022/01/24 02:11:36;;;;;;;2.70;2.50;;;16.90;59.00;;;;;;5095141;28;20478;-68
2022/01/24 02:14:09;;;;;;;3.05;2.63;;;16.90;59.00;;;;;;5095280;28;20071;-68
2022/01/24 02:19:11;;;;;;;6.00;2.67;;;16.90;59.00;;;;;;5095075;28;20424;-68
2022/01/24 02:24:11;;;;;;;3.17;2.40;;;16.80;59.00;;;;;;5075763;28;20036;-68
2022/01/24 02:26:38;;;;;;;2.70;2.50;;;16.80;59.10;;;;;;5058375;28;20265;-68
2022/01/24 02:29:25;;;;;;;3.13;2.70;;;16.80;59.10;;;;;;5074372;28;20138;-68
2022/01/24 02:31:52;;;;;;;2.90;2.70;;;16.80;59.10;;;;;;5074830;28;20024;-68
2022/01/24 02:34:29;;;;;;;2.97;2.60;;;16.80;59.10;;;;;;5074105;28;20024;-68
2022/01/24 02:36:57;;;;;;;3.00;2.60;;;16.90;59.20;;;;;;5084307;28;20045;-68
2022/01/24 02:50:23;;;;;;;3.13;2.78;;;16.80;59.30;;;;;;5094031;28;20035;-68
2022/01/24 02:52:49;;;;;;;3.25;2.95;;;16.80;59.30;;;;;;5094535;28;20024;-68
2022/01/24 02:55:14;;;;;;;3.45;2.70;;;16.80;59.40;;;;;;5095504;28;20071;-68
2022/01/24 02:57:40;;;;;;;3.00;2.70;;;16.80;59.30;;;;;;5094424;28;20413;-68
2022/01/24 03:00:06;;;;;;;3.00;2.80;;;16.80;59.30;;;;;;5094253;28;20035;-68
2022/01/24 03:02:32;;;;;;;3.22;2.90;;;16.80;59.30;;;;;;5093977;28;20056;-68
2022/01/24 03:04:57;;;;;;;2.85;2.63;;;16.80;59.30;;;;;;5093678;28;20060;-68
2022/01/24 03:07:23;;;;;;;3.50;3.15;;;16.80;59.30;;;;;;5093851;28;20024;-68
2022/01/24 03:09:51;;;;;;;3.83;2.70;;;16.80;59.30;;;;;;5094117;28;20549;-68
2022/01/24 03:12:38;;;;;;;2.72;2.53;;;16.80;59.30;;;;;;5095095;28;20048;-68
2022/01/24 03:15:03;;;;;;;3.03;2.72;;;16.80;59.30;;;;;;5093933;28;20032;-68
2022/01/24 03:17:29;;;;;;;5.85;2.50;;;16.80;59.30;;;;;;5094913;28;20461;-68
2022/01/24 03:19:55;;;;;;;3.90;2.97;;;16.80;59.30;;;;;;5076837;28;20119;-68
2022/01/24 03:22:21;;;;;;;4.18;2.80;;;16.80;59.30;;;;;;5076464;28;20032;-68
2022/01/24 03:24:48;;;;;;;3.63;3.22;;;16.80;59.30;;;;;;5073449;28;20036;-68
2022/01/24 03:27:14;;;;;;;3.47;2.70;;;16.80;59.30;;;;;;5074785;28;20048;-68
2022/01/24 03:29:40;;;;;;;3.13;2.80;;;16.80;59.40;;;;;;5056685;28;20506;-68
2022/01/24 03:32:06;;;;;;;2.92;2.65;;;16.80;59.40;;;;;;5074288;28;20020;-68
2022/01/24 03:34:32;;;;;;;3.10;2.78;;;16.80;59.40;;;;;;5074580;28;20017;-68
2022/01/24 03:36:57;;;;;;;3.10;2.80;;;16.70;59.30;;;;;;5083583;28;20025;-68
2022/01/24 03:39:23;;;;;;;3.30;2.65;;;16.80;60.40;;;;;;5094610;28;20020;-68
2022/01/24 03:41:49;;;;;;;3.10;2.53;;;16.70;59.30;;;;;;5093243;28;20452;-68
2022/01/24 03:44:17;;;;;;;4.03;3.10;;;16.80;59.40;;;;;;5093424;28;20028;-68
2022/01/24 03:47:13;;;;;;;2.90;2.70;;;16.80;59.40;;;;;;5094097;28;20020;-68
2022/01/24 03:49:45;;;;;;;3.45;2.72;;;16.80;59.50;;;;;;5093402;28;20024;-68
2022/01/24 03:52:20;;;;;;;2.90;2.70;;;16.70;59.50;;;;;;5093369;28;20494;-68
2022/01/24 03:54:46;;;;;;;3.03;2.60;;;16.70;59.40;;;;;;5093187;28;20498;-68
2022/01/24 03:57:13;;;;;;;3.70;2.70;;;16.70;59.50;;;;;;5093301;28;20024;-68
2022/01/24 03:59:39;;;;;;;3.40;3.10;;;16.70;59.50;;;;;;5092869;28;20542;-68
2022/01/24 04:02:04;;;;;;;2.97;2.70;;;16.70;59.50;;;;;;5092848;28;20024;-68
2022/01/24 04:04:30;;;;;;;2.95;2.75;;;16.70;59.40;;;;;;5092957;28;20032;-68
2022/01/24 04:06:56;;;;;;;3.10;2.80;;;16.70;59.50;;;;;;5094256;28;20474;-68
2022/01/24 04:09:21;;;;;;;3.75;3.08;;;16.70;59.50;;;;;;5076026;28;20047;-68
2022/01/24 04:11:51;;;;;;;3.35;2.85;;;16.70;59.50;;;;;;5092638;28;20379;-68
2022/01/24 04:17:05;;;;;;;3.10;2.80;;;16.70;59.50;;;;;;5093718;28;20591;-68
2022/01/24 04:22:35;;;;;;;3.63;2.60;;;16.70;59.50;;;;;;5054907;28;20032;-68
2022/01/24 04:25:03;;;;;;;2.90;2.70;;;16.70;59.60;;;;;;5071251;28;20028;-68
2022/01/24 04:27:29;;;;;;;2.58;2.38;;;16.60;59.60;;;;;;5071011;28;20037;-68
2022/01/24 04:29:55;;;;;;;3.40;2.65;;;16.70;59.60;;;;;;5071293;28;20033;-68
2022/01/24 04:32:20;;;;;;;4.05;2.75;;;16.70;59.50;;;;;;5070857;28;20111;-68
2022/01/24 04:34:47;;;;;;;3.20;2.47;;;16.70;59.60;;;;;;5070998;28;20032;-68
2022/01/24 04:37:12;;;;;;;2.92;2.70;;;16.60;59.60;;;;;;5058754;28;20033;-68
2022/01/24 04:39:38;;;;;;;3.05;2.75;;;16.70;59.60;;;;;;5051143;28;20633;-68
2022/01/24 04:42:10;;;;;;;3.35;2.80;;;16.70;59.60;;;;;;5050947;28;20112;-68
2022/01/24 04:47:37;;;;;;;2.88;2.60;;;16.70;59.60;;;;;;5051034;28;20519;-68
2022/01/24 04:55:12;;;;;;;2.72;2.53;;;16.60;59.70;;;;;;5050848;28;20439;-68
2022/01/24 04:57:38;;;;;;;2.90;2.70;;;16.60;59.60;;;;;;5050615;28;20053;-68
2022/01/24 05:00:06;;;;;;;2.67;2.47;;;16.60;59.70;;;;;;5068007;28;20036;-68
2022/01/24 05:02:31;;;;;;;2.95;2.72;;;16.60;59.60;;;;;;5071473;28;20035;-68
2022/01/24 05:04:57;;;;;;;3.15;2.80;;;16.60;59.60;;;;;;5072690;28;20406;-68
2022/01/24 05:07:23;;;;;;;2.60;2.40;;;16.60;59.60;;;;;;5072691;28;20511;-68
2022/01/24 05:10:00;;;;;;;2.78;2.58;;;16.60;59.70;;;;;;5071443;28;20497;-68
2022/01/24 05:21:23;;;;;;;3.03;2.72;;;16.60;59.70;;;;;;5071733;28;20386;-68
2022/01/24 05:25:52;;;;;;;3.35;3.05;;;16.60;59.80;;;;;;5071374;28;20040;-68
2022/01/24 05:28:18;;;;;;;3.20;2.78;;;16.60;59.80;;;;;;5070847;28;20075;-68
2022/01/24 05:30:43;;;;;;;2.97;2.67;;;16.60;59.70;;;;;;5071137;28;20039;-68
2022/01/24 05:33:09;;;;;;;2.65;2.45;;;16.60;59.70;;;;;;5070850;28;20030;-68
2022/01/24 05:35:34;;;;;;;5.57;2.70;;;16.60;59.80;;;;;;5071094;28;20020;-68
2022/01/24 05:38:00;;;;;;;3.28;2.92;;;16.60;59.80;;;;;;5091130;28;20020;-68
2022/01/24 05:40:26;;;;;;;2.40;2.20;;;16.60;59.70;;;;;;5092450;28;20039;-68
2022/01/24 05:42:51;;;;;;;2.75;2.40;;;16.60;59.80;;;;;;5090946;28;20024;-68
2022/01/24 05:45:17;;;;;;;2.72;2.53;;;16.60;59.80;;;;;;5092694;28;20032;-68
2022/01/24 05:47:43;;;;;;;2.65;2.45;;;16.60;59.80;;;;;;5091108;28;20024;-68
2022/01/24 05:50:09;;;;;;;2.50;2.30;;;16.60;59.80;;;;;;5091146;28;20078;-68
2022/01/24 05:52:35;;;;;;;2.38;2.17;;;16.50;59.80;;;;;;5091346;28;20020;-68
2022/01/24 05:55:00;;;;;;;2.72;2.42;;;16.60;59.80;;;;;;5091511;28;20470;-68
2022/01/24 05:57:26;;;;;;;2.50;2.30;;;16.60;60.80;;;;;;5092263;28;20029;-68
2022/01/24 05:59:51;;;;;;;2.95;2.70;;;16.60;59.80;;;;;;5091212;28;20028;-68
2022/01/24 06:02:17;;;;;;;2.65;2.45;;;16.60;59.80;;;;;;5091097;28;20020;-68
2022/01/24 06:04:43;;;;;;;2.38;2.17;;;16.60;59.90;;;;;;5091028;28;20440;-68
2022/01/24 06:07:08;;;;;;;2.45;2.25;;;16.60;59.80;;;;;;5091036;28;20024;-68
2022/01/24 06:09:34;;;;;;;2.60;2.40;;;16.50;59.80;;;;;;5090980;28;20059;-67
2022/01/24 06:12:00;;;;;;;2.63;2.42;;;16.60;59.80;;;;;;5091838;28;20055;-68
2022/01/24 06:14:25;;;;;;;2.60;2.40;;;16.60;59.90;;;;;;5090969;28;20016;-68
2022/01/24 06:16:51;;;;;;;2.60;2.40;;;16.60;59.90;;;;;;5091846;28;20027;-68
2022/01/24 06:19:16;;;;;;;2.78;2.58;;;16.50;59.90;;;;;;5091300;28;20028;-68
2022/01/24 06:21:44;;;;;;;2.83;2.58;;;16.50;59.90;;;;;;5077631;28;20494;-68
2022/01/24 06:24:10;;;;;;;3.83;2.42;;;16.50;59.90;;;;;;5072021;28;20033;-68
2022/01/24 06:26:36;;;;;;;2.42;2.22;;;16.50;59.90;;;;;;5070410;28;20060;-68
2022/01/24 06:29:02;;;;;;;2.42;2.22;;;16.60;59.90;;;;;;5071840;28;20067;-68
2022/01/24 06:31:27;;;;;;;2.70;2.50;;;16.50;59.90;;;;;;5054158;28;20039;-68
2022/01/24 06:33:53;;;;;;;2.47;2.28;;;16.50;59.90;;;;;;5071764;28;20422;-68
2022/01/24 06:36:19;;;;;;;2.55;2.35;;;16.50;59.90;;;;;;5076611;28;20046;-68
2022/01/24 06:38:44;;;;;;;2.33;2.10;;;16.50;59.90;;;;;;5074302;28;20016;-68
2022/01/24 06:41:10;;;;;;;2.35;2.15;;;16.50;59.90;;;;;;5069244;28;20029;-68
2022/01/24 06:43:36;;;;;;;2.22;2.10;;;16.50;59.90;;;;;;5071200;28;20025;-68
2022/01/24 06:46:01;;;;;;;2.47;2.28;;;16.50;59.90;;;;;;5072727;28;20032;-68
2022/01/24 06:48:28;;;;;;;2.88;2.63;;;16.50;59.90;;;;;;5072837;28;20069;-68
2022/01/24 06:50:53;;;;;;;2.45;2.25;;;16.50;59.90;;;;;;5074568;28;20025;-68
2022/01/24 06:53:19;;;;;;;3.45;2.35;;;16.50;59.90;;;;;;5094459;28;20031;-68
2022/01/24 06:55:45;;;;;;;2.40;2.20;;;16.50;61.00;;;;;;5094444;28;20543;-68
2022/01/24 06:58:10;;;;;;;2.60;2.40;;;16.50;59.90;;;;;;5083100;28;20028;-68
2022/01/24 07:00:36;;;;;;;2.17;2.08;;;16.50;59.90;;;;;;5089505;28;20031;-68
2022/01/24 07:03:02;;;;;;;2.22;2.03;;;16.50;60.00;;;;;;5078058;28;20035;-68
2022/01/24 07:05:28;;;;;;;2.75;2.50;;;16.50;60.00;;;;;;5087810;28;20055;-68
2022/01/24 07:07:56;;;;;;;2.00;1.80;;;16.50;60.00;;;;;;5083363;28;20099;-68
2022/01/24 07:10:24;;;;;;;2.00;1.90;;;16.50;60.00;;;;;;5079879;28;20860;-67
2022/01/24 07:12:50;;;;;;;2.35;2.15;;;16.50;60.00;;;;;;5057293;28;20398;-68
2022/01/24 07:15:19;;;;;;;2.75;2.55;;;16.50;60.10;;;;;;5090769;28;20099;-68
2022/01/24 07:20:18;;;;;;;3.58;3.28;;;16.50;59.80;;;;;;5083249;28;20081;-68
2022/01/24 07:22:44;;;;;;;3.78;3.38;;;16.40;59.60;;;;;;5082938;28;20016;-68
2022/01/24 07:25:10;;;;;;;4.10;3.63;;;16.40;59.50;;;;;;5084875;28;20513;-68
2022/01/24 07:27:35;;;;;;;8.43;4.28;;;16.40;59.40;;;;;;5084817;28;20016;-68
2022/01/24 07:30:01;;;;;;;4.10;3.67;;;16.30;59.30;;;;;;5078361;28;20032;-68
2022/01/24 07:32:30;;;;;;;5.68;4.35;;;16.30;59.20;;;;;;5085398;28;20513;-68
2022/01/24 07:34:56;;;;;;;6.88;4.90;;;16.30;59.10;;;;;;5076151;28;20032;-68
2022/01/24 07:37:22;;;;;;;5.45;4.13;;;16.20;59.00;;;;;;5083924;28;20020;-68
2022/01/24 07:39:49;;;;;;;5.10;4.60;;;16.20;59.00;;;;;;5084700;28;20082;-68
2022/01/24 07:42:17;;;;;;;5.88;4.28;;;16.20;58.80;;;;;;5085180;28;20017;-68
2022/01/24 07:44:44;;;;;;;5.03;4.53;;;16.10;58.70;;;;;;5078458;28;20508;-67
2022/01/24 07:47:10;;;;;;;5.28;4.78;;;16.10;58.60;;;;;;5072877;28;20013;-67
2022/01/24 07:49:36;;;;;;;5.82;4.38;;;16.00;58.50;;;;;;5073184;28;20031;-68
2022/01/24 07:52:02;;;;;;;6.00;5.40;;;16.00;58.40;;;;;;5090660;28;20081;-68
2022/01/24 07:54:27;;;;;;;6.60;5.13;;;16.00;58.30;;;;;;5056283;28;20059;-68
2022/01/24 07:56:53;;;;;;;6.90;5.80;;;15.90;58.20;;;;;;5081432;28;20048;-67
2022/01/24 07:59:20;;;;;;;7.97;5.45;;;15.90;58.10;;;;;;5082305;28;20057;-67
2022/01/24 08:01:46;;;;;;;8.63;5.40;;;15.90;58.20;;;;;;5072693;28;20024;-67
2022/01/24 08:04:12;;;;;;;6.60;4.30;;;15.90;58.60;;;;;;5071938;28;20120;-67
2022/01/24 08:06:38;;;;;;;8.38;4.80;;;15.90;58.80;;;;;;5070354;28;20111;-67
2022/01/24 08:09:05;;;;;;;7.13;3.92;;;16.00;59.00;;;;;;5071565;28;20027;-67
2022/01/24 08:11:31;;;;;;;5.78;3.50;;;16.10;59.10;;;;;;5070836;28;20023;-67
2022/01/24 08:13:57;;;;;;;5.15;3.17;;;16.10;59.10;;;;;;5071997;28;20021;-67
2022/01/24 08:16:23;;;;;;;6.30;3.47;;;16.10;59.10;;;;;;5072576;28;20023;-67
2022/01/24 08:18:51;;;;;;;7.88;3.75;;;16.10;59.10;;;;;;5075141;28;20040;-67
2022/01/24 08:21:18;;;;;;;6.10;3.70;;;16.20;59.10;;;;;;5084781;28;20091;-67
2022/01/24 08:23:44;;;;;;;6.10;3.55;;;16.20;60.00;;;;;;5080110;28;20509;-67
2022/01/24 08:26:09;;;;;;;5.25;3.13;;;16.20;59.00;;;;;;5073399;28;20025;-67
2022/01/24 08:28:35;;;;;;;4.00;3.13;;;16.20;59.00;;;;;;5090399;28;20048;-67
2022/01/24 08:31:01;;;;;;;8.60;3.15;;;16.30;59.00;;;;;;5092384;28;20493;-67
2022/01/24 08:33:26;;;;;;;4.60;2.92;;;16.20;59.00;;;;;;5093704;28;20027;-67
2022/01/24 08:35:52;;;;;;;6.35;3.15;;;16.30;59.00;;;;;;5086046;28;20021;-67
2022/01/24 08:38:19;;;;;;;5.53;2.95;;;16.20;59.00;;;;;;5071710;28;20433;-67
2022/01/24 08:40:47;;;;;;;5.78;3.38;;;16.30;59.00;;;;;;5072021;28;20021;-67
2022/01/24 08:43:21;;;;;;;5.00;3.35;;;16.30;59.00;;;;;;5073103;28;20031;-67
2022/01/24 08:45:50;;;;;;;7.03;3.10;;;16.30;59.00;;;;;;5073211;28;20020;-67
2022/01/24 08:48:19;;;;;;;5.85;3.38;;;16.30;59.00;;;;;;5073037;28;20024;-67
2022/01/24 08:50:45;;;;;;;5.45;3.17;;;16.30;59.00;;;;;;5055779;28;20082;-67
2022/01/24 08:53:11;;;;;;;6.07;3.13;;;16.30;59.00;;;;;;5081139;28;20024;-67
2022/01/24 08:55:36;;;;;;;6.85;3.00;;;16.30;59.00;;;;;;5093145;28;20020;-67
2022/01/24 08:58:03;;;;;;;5.50;2.65;;;16.30;58.90;;;;;;5092109;28;20052;-67
2022/01/24 09:00:28;;;;;;;5.07;2.80;;;16.30;59.00;;;;;;5093106;28;20050;-67
2022/01/24 09:02:54;;;;;;;5.07;2.78;;;16.30;59.00;;;;;;5091921;28;20426;-67
2022/01/24 09:05:24;;;;;;;5.07;2.97;;;16.30;58.90;;;;;;5091688;28;20451;-67
2022/01/24 09:07:53;;;;;;;2.50;2.22;;;16.40;59.00;;;;;;5091981;28;20032;-67
2022/01/24 09:10:19;;;;;;;6.18;2.75;;;16.40;59.00;;;;;;5091604;28;20100;-67
2022/01/24 09:12:45;;;;;;;4.72;2.60;;;16.40;59.00;;;;;;5092984;28;20103;-67
2022/01/24 09:15:11;;;;;;;3.50;2.90;;;16.30;58.90;;;;;;5091668;28;20095;-67
2022/01/24 09:17:37;;;;;;;4.00;2.58;;;16.40;58.90;;;;;;5091680;28;20483;-67
2022/01/24 09:20:04;;;;;;;5.97;2.58;;;16.40;58.90;;;;;;5083801;28;20029;-67
2022/01/24 09:22:29;;;;;;;4.50;2.42;;;16.40;58.90;;;;;;5071360;28;20554;-67
2022/01/24 09:24:55;;;;;;;4.10;2.92;;;16.40;58.90;;;;;;5072534;28;20111;-67
2022/01/24 09:27:21;;;;;;;5.22;2.90;;;16.40;58.90;;;;;;5081049;28;20012;-67
2022/01/24 09:29:48;;;;;;;5.93;3.28;;;16.40;58.90;;;;;;5092349;28;20105;-67
2022/01/24 09:32:14;;;;;;;3.00;2.55;;;16.40;58.90;;;;;;5091185;28;20019;-67
2022/01/24 09:34:39;;;;;;;4.90;2.70;;;16.40;58.90;;;;;;5091348;28;20032;-67
2022/01/24 09:37:05;;;;;;;5.72;3.28;;;16.40;58.90;;;;;;5092650;28;20016;-67
2022/01/24 09:39:31;;;;;;;5.78;2.97;;;16.40;58.90;;;;;;5091247;28;20031;-67
2022/01/24 09:41:56;;;;;;;5.38;2.55;;;16.40;58.90;;;;;;5092560;28;20024;-67
2022/01/24 09:44:22;;;;;;;4.13;2.53;;;16.40;58.90;;;;;;5092230;28;20035;-67
2022/01/24 09:46:47;;;;;;;5.00;2.90;;;16.40;58.90;;;;;;5074381;28;20044;-67
2022/01/24 09:49:13;;;;;;;3.45;2.58;;;16.40;58.90;;;;;;5092583;28;20028;-67
2022/01/24 09:51:39;;;;;;;2.90;2.60;;;16.40;58.80;;;;;;5091282;28;20495;-67
2022/01/24 09:54:06;;;;;;;2.78;2.40;;;16.40;58.80;;;;;;5091091;28;20020;-67
2022/01/24 09:56:31;;;;;;;5.90;2.65;;;16.40;58.90;;;;;;5091070;28;20024;-67
2022/01/24 09:58:57;;;;;;;3.05;2.50;;;16.40;58.80;;;;;;5091213;28;20031;-67
2022/01/24 10:01:23;;;;;;;5.45;3.05;;;16.40;58.80;;;;;;5092265;28;20031;-67
2022/01/24 10:04:28;;;;;;;3.58;2.97;;;16.40;58.80;;;;;;5092026;28;20573;-67
2022/01/24 10:07:08;;;;;;;3.10;2.65;;;16.50;58.70;;;;;;5010133;28;20069;-67
2022/01/24 10:09:38;;;;;;;4.40;2.83;;;16.40;58.90;;;;;;5010306;28;20042;-67
2022/01/24 10:12:19;;;;;;;3.15;2.85;;;16.40;58.90;;;;;;5010229;28;20129;-67
2022/01/24 10:17:34;;;;;;;3.72;2.30;;;16.40;58.90;;;;;;4996626;28;20044;-67
2022/01/24 10:20:23;;;;;;;6.35;2.83;;;16.40;58.80;;;;;;4989773;28;20030;-67
2022/01/24 10:23:13;;;;;;;3.90;2.70;;;16.40;58.70;;;;;;4994714;28;20109;-67
2022/01/24 10:26:02;;;;;;;2.67;2.47;;;16.40;58.70;;;;;;4994434;28;20034;-67
2022/01/24 10:28:34;;;;;;;3.53;2.75;;;16.40;58.80;;;;;;5011519;28;20128;-67
2022/01/24 10:31:24;;;;;;;3.47;2.40;;;16.40;58.80;;;;;;4997572;28;20053;-67
2022/01/24 10:33:54;;;;;;;5.20;3.17;;;16.40;58.70;;;;;;5013660;28;20030;-67
2022/01/24 10:36:35;;;;;;;4.20;2.70;;;16.40;58.80;;;;;;5013812;28;20069;-67
2022/01/24 10:39:14;;;;;;;2.95;2.70;;;16.40;58.70;;;;;;5074422;28;20020;-67
2022/01/24 10:41:55;;;;;;;2.50;2.30;;;16.40;58.70;;;;;;5075561;28;20077;-67
2022/01/24 10:44:31;;;;;;;3.72;2.80;;;16.40;58.80;;;;;;5075402;28;20025;-67
2022/01/24 10:47:17;;;;;;;3.40;2.70;;;16.40;58.70;;;;;;5074316;28;20017;-67
2022/01/24 10:49:44;;;;;;;3.72;2.95;;;16.40;58.60;;;;;;5075385;28;20041;-67
2022/01/24 10:52:30;;;;;;;4.50;3.05;;;16.40;58.80;;;;;;5073946;28;20031;-67
2022/01/24 10:55:25;;;;;;;2.90;2.60;;;16.40;58.60;;;;;;5075212;28;20025;-67
2022/01/24 10:58:04;;;;;;;3.22;2.53;;;16.40;58.60;;;;;;5074153;28;20017;-67
2022/01/24 11:00:30;;;;;;;3.08;2.75;;;16.40;58.70;;;;;;5074031;28;20039;-67
2022/01/24 11:02:57;;;;;;;3.33;2.70;;;16.40;58.80;;;;;;5073621;28;20024;-67
2022/01/24 11:05:34;;;;;;;4.55;2.80;;;16.40;58.70;;;;;;5073840;28;20040;-67
2022/01/24 11:08:01;;;;;;;3.75;2.85;;;16.40;58.70;;;;;;5075328;28;20433;-67
2022/01/24 11:10:28;;;;;;;4.47;3.10;;;16.40;58.70;;;;;;5073570;28;20029;-67
2022/01/24 11:12:53;;;;;;;2.83;2.53;;;16.40;58.60;;;;;;5073813;28;20023;-67
2022/01/24 11:15:20;;;;;;;2.78;2.55;;;16.40;58.60;;;;;;5073762;28;20441;-67
2022/01/24 11:17:47;;;;;;;2.63;2.42;;;16.40;58.60;;;;;;5073566;28;20016;-67
2022/01/24 11:20:16;;;;;;;3.40;2.90;;;16.40;58.60;;;;;;5073508;28;20028;-67
2022/01/24 11:22:46;;;;;;;3.35;2.80;;;16.40;58.60;;;;;;5073678;28;20028;-67
2022/01/24 11:25:13;;;;;;;3.08;2.50;;;16.40;58.60;;;;;;5073613;28;20417;-67
2022/01/24 11:27:40;;;;;;;3.17;2.80;;;16.40;58.50;;;;;;5085840;28;20024;-67
2022/01/24 11:30:13;;;;;;;2.70;2.50;;;16.40;58.50;;;;;;5092955;28;20504;-67
2022/01/24 11:32:44;;;;;;;3.55;2.80;;;16.50;58.60;;;;;;5093562;28;20020;-67
2022/01/24 11:35:09;;;;;;;3.10;2.78;;;16.40;58.50;;;;;;5093601;28;20016;-67
2022/01/24 11:37:36;;;;;;;3.10;2.60;;;16.40;58.50;;;;;;5094753;28;20382;-67
2022/01/24 11:40:11;;;;;;;4.10;2.78;;;16.40;58.50;;;;;;5093808;28;20035;-67
2022/01/24 11:42:37;;;;;;;3.15;2.75;;;16.50;58.50;;;;;;5094631;28;20016;-67
2022/01/24 11:45:10;;;;;;;3.20;2.90;;;16.40;58.50;;;;;;5093103;28;20401;-67
2022/01/24 11:47:35;;;;;;;;;;;16.40;58.50;;;;;;5094811;28;20020;-67
2022/01/24 11:50:23;;;;;;;2.70;2.50;;;16.40;58.40;;;;;;5093536;28;20303;-67
2022/01/24 11:52:50;;;;;;;3.33;2.97;;;16.40;58.60;;;;;;5093406;28;20059;-67
2022/01/24 11:55:26;;;;;;;2.78;2.50;;;16.40;58.70;;;;;;5093181;28;20012;-67
2022/01/24 11:57:56;;;;;;;3.17;2.38;;;16.40;58.60;;;;;;5093703;28;20103;-67
2022/01/24 12:00:26;;;;;;;3.05;2.60;;;16.40;58.60;;;;;;5092810;28;20016;-67
2022/01/24 12:02:54;;;;;;;2.85;2.55;;;16.40;58.50;;;;;;5093028;28;20024;-67
2022/01/24 12:05:24;;;;;;;2.63;2.42;;;16.40;58.50;;;;;;5094037;28;20027;-67
2022/01/24 12:07:55;;;;;;;2.75;2.40;;;16.40;58.50;;;;;;5094200;28;20386;-67
2022/01/24 12:13:13;;;;;;;5.72;3.17;;;16.40;58.50;;;;;;5094092;28;20489;-67
2022/01/24 12:15:38;;;;;;;3.17;2.80;;;16.50;58.30;;;;;;5093629;28;20044;-67
2022/01/24 12:18:27;;;;;;;2.90;2.53;;;16.40;58.40;;;;;;5094138;28;20053;-67
2022/01/24 12:21:03;;;;;;;2.55;2.35;;;16.40;58.30;;;;;;5078385;28;20028;-67
2022/01/24 12:23:48;;;;;;;2.88;2.42;;;16.50;58.40;;;;;;5073492;28;20032;-67
2022/01/24 12:26:14;;;;;;;2.92;2.63;;;16.50;58.40;;;;;;5072247;28;20075;-67
2022/01/24 12:28:42;;;;;;;2.50;2.30;;;16.40;58.40;;;;;;5092665;28;20395;-67
2022/01/24 12:31:10;;;;;;;3.15;2.85;;;16.40;58.40;;;;;;5093864;28;20028;-67
2022/01/24 12:33:54;;;;;;;2.70;2.50;;;16.40;58.40;;;;;;5092441;28;20028;-67
2022/01/24 12:36:38;;;;;;;3.47;2.88;;;16.50;58.30;;;;;;5093702;28;20026;-67
2022/01/24 12:39:14;;;;;;;2.78;2.58;;;16.50;58.30;;;;;;5093495;28;20025;-67
2022/01/24 12:41:48;;;;;;;2.95;2.75;;;16.50;58.40;;;;;;5092123;28;20031;-67
2022/01/24 12:47:11;;;;;;;2.75;2.50;;;16.50;58.40;;;;;;5092485;28;20085;-67
2022/01/24 12:49:37;;;;;;;2.50;2.30;;;16.50;58.40;;;;;;5092147;28;20035;-67
2022/01/24 12:52:08;;;;;;;4.32;2.90;;;16.40;58.40;;;;;;5092203;28;20024;-67
2022/01/24 12:54:37;;;;;;;2.50;2.30;;;16.50;58.40;;;;;;5091993;28;20069;-67
2022/01/24 12:57:08;;;;;;;2.80;2.60;;;16.50;58.40;;;;;;5091967;28;20070;-67
2022/01/24 12:59:34;;;;;;;3.28;2.38;;;16.50;58.30;;;;;;5091739;28;20112;-67
2022/01/24 13:02:03;;;;;;;2.85;2.60;;;16.50;58.40;;;;;;5074965;28;20490;-67
2022/01/24 13:04:33;;;;;;;2.30;2.10;;;16.50;58.30;;;;;;5091713;28;20092;-67
2022/01/24 13:06:59;;;;;;;2.83;2.60;;;16.50;58.30;;;;;;5091975;28;20535;-67
2022/01/24 13:09:27;;;;;;;2.80;2.45;;;16.50;58.30;;;;;;5091694;28;20032;-67
2022/01/24 13:11:55;;;;;;;2.85;2.35;;;16.50;58.30;;;;;;5092982;28;20539;-67
2022/01/24 13:22:30;;;;;;;2.42;2.22;;;16.50;58.30;;;;;;5071811;28;20028;-67
2022/01/24 13:25:06;;;;;;;2.75;2.55;;;16.50;58.20;;;;;;5072418;28;20028;-67
2022/01/24 13:27:48;;;;;;;2.72;2.40;;;16.60;58.30;;;;;;5080953;28;20019;-67
2022/01/24 13:30:16;;;;;;;2.50;2.30;;;16.60;58.20;;;;;;5092700;28;20024;-67
2022/01/24 13:33:08;;;;;;;2.30;2.10;;;16.50;58.20;;;;;;5091484;28;20119;-67
2022/01/24 13:35:38;;;;;;;2.78;2.58;;;16.60;58.10;;;;;;5088771;28;20043;-67
2022/01/24 13:38:07;;;;;;;2.50;2.30;;;16.60;58.30;;;;;;5091613;28;20119;-67
2022/01/24 13:40:54;;;;;;;2.67;2.47;;;16.60;58.30;;;;;;5092468;28;20035;-67
2022/01/24 13:43:38;;;;;;;2.47;2.28;;;16.60;58.20;;;;;;5092234;28;20386;-67
2022/01/24 13:46:09;;;;;;;2.35;2.15;;;16.60;58.10;;;;;;5092581;28;20020;-67
2022/01/24 13:48:48;;;;;;;2.58;2.38;;;16.60;58.20;;;;;;5091353;28;20482;-67
2022/01/24 13:51:16;;;;;;;2.35;2.15;;;16.60;58.20;;;;;;5092454;28;20036;-67
2022/01/24 13:53:47;;;;;;;2.60;2.38;;;16.60;58.20;;;;;;5090819;28;20019;-67
2022/01/24 13:56:24;;;;;;;2.53;2.33;;;16.60;58.20;;;;;;5090959;28;20020;-67
2022/01/24 13:59:00;;;;;;;2.13;1.95;;;16.70;58.20;;;;;;5091184;28;20091;-67
2022/01/24 14:01:26;;;;;;;2.55;2.25;;;16.70;58.20;;;;;;5091327;28;20028;-67
2022/01/24 14:03:59;;;;;;;2.40;2.20;;;16.60;58.20;;;;;;5091031;28;20051;-67
2022/01/24 14:06:24;;;;;;;2.28;2.08;;;16.70;58.10;;;;;;5091214;28;20085;-67
2022/01/24 14:09:03;;;;;;;2.60;2.33;;;16.60;58.10;;;;;;5090858;28;20460;-67
2022/01/24 14:11:29;;;;;;;2.47;2.28;;;16.70;58.10;;;;;;5090628;28;20030;-67
2022/01/24 14:13:59;;;;;;;2.10;2.00;;;16.70;58.10;;;;;;5091104;28;20095;-67
2022/01/24 14:16:44;;;;;;;2.33;2.10;;;16.70;58.20;;;;;;5092152;28;21112;-67
2022/01/24 14:19:09;;;;;;;2.22;2.03;;;16.70;58.10;;;;;;5091309;28;20024;-67
2022/01/24 14:21:35;;;;;;;2.47;2.25;;;16.70;58.10;;;;;;5070540;28;20123;-67
2022/01/24 14:24:01;;;;;;;2.30;2.10;;;16.70;58.20;;;;;;5071993;28;20051;-67
2022/01/24 14:26:28;;;;;;;2.20;2.08;;;16.70;58.10;;;;;;5055152;28;20025;-67
2022/01/24 14:29:04;;;;;;;2.60;2.40;;;16.70;58.10;;;;;;5091546;28;20117;-67
2022/01/24 14:31:30;;;;;;;2.55;2.35;;;16.70;58.00;;;;;;5092087;28;20028;-67
2022/01/24 14:34:00;;;;;;;2.58;2.30;;;16.70;58.10;;;;;;5090798;28;20016;-67
2022/01/24 14:36:25;;;;;;;2.40;2.20;;;16.70;58.00;;;;;;5092109;28;20545;-67
2022/01/24 14:38:57;;;;;;;2.67;2.40;;;16.70;58.00;;;;;;5090724;28;20099;-67
2022/01/24 14:41:45;;;;;;;2.10;1.90;;;16.70;58.00;;;;;;5090346;28;20036;-67
2022/01/24 14:46:56;;;;;;;2.47;2.20;;;16.70;58.00;;;;;;5090918;28;20510;-67
2022/01/24 14:49:24;;;;;;;2.65;2.38;;;16.70;58.10;;;;;;5092056;28;20019;-67
2022/01/24 14:51:51;;;;;;;2.60;2.40;;;16.70;58.00;;;;;;5090541;28;20107;-67
2022/01/24 14:54:23;;;;;;;2.30;2.10;;;16.70;58.00;;;;;;5091531;28;20486;-67